ADDS METAR Data INFO
IDs: Format: Raw Decoded Include TAF

Data at: 1152 UTC 21 Jun 2018

KMWK 211150Z AUTO 00000KT 10SM CLR 26/21 A2989 RMK AO2 T02550212 10259 20215
KMWK 211130Z AUTO 00000KT 10SM CLR 25/21 A2988 RMK AO2 T02500212
KMWK 211110Z AUTO 00000KT 10SM CLR 23/21 A2989 RMK AO2 T02340206
KMWK 211050Z AUTO 00000KT 10SM CLR 22/20 A2989 RMK AO2 T02210200
KMWK 211030Z AUTO 00000KT 10SM CLR 22/20 A2988 RMK AO2 T02190197
KMWK 211010Z AUTO 00000KT 10SM CLR 22/20 A2987 RMK AO2 T02160196
KMWK 210950Z AUTO 00000KT 10SM CLR 22/20 A2987 RMK AO2 T02170196
KMWK 210930Z AUTO 00000KT 10SM CLR 23/20 A2986 RMK AO2 T02250200
KMWK 210910Z AUTO 00000KT 10SM CLR 24/20 A2986 RMK AO2 T02400202
KMWK 210850Z AUTO 29003KT 10SM CLR 24/20 A2986 RMK AO2 T02420204
KMWK 210830Z AUTO 00000KT 10SM CLR 24/20 A2987 RMK AO2 T02380202
KMWK 210810Z AUTO 00000KT 10SM CLR 24/21 A2987 RMK AO2 T02440205
KMWK 210750Z AUTO 00000KT 10SM CLR 24/21 A2987 RMK AO2 T02370205
KMWK 210730Z AUTO 00000KT 10SM CLR 25/21 A2988 RMK AO2 T02450208
KMWK 210710Z AUTO 00000KT 10SM CLR 25/21 A2988 RMK AO2 T02460205
KMWK 210650Z AUTO 00000KT 10SM CLR 25/20 A2988 RMK AO2 T02530201
KMWK 210630Z AUTO 00000KT 10SM CLR 26/20 A2989 RMK AO2 T02590202
KMWK 210610Z AUTO 33003KT 10SM CLR 26/21 A2989 RMK AO2 T02550209
KMWK 210550Z AUTO 32004KT 10SM CLR 26/21 A2990 RMK AO2 T02560208 10295 20245 403230215
KMWK 210530Z AUTO 33003KT 10SM CLR 25/21 A2990 RMK AO2 T02450208
KMWK 210510Z AUTO 00000KT 10SM CLR 25/21 A2991 RMK AO2 T02520210
KMWK 210450Z AUTO 00000KT 10SM SCT090 26/20 A2992 RMK AO2 T02600203
KMWK 210430Z AUTO 00000KT 10SM SCT080 26/20 A2992 RMK AO2 T02580204
KMWK 210410Z AUTO 00000KT 10SM SCT080 SCT090 26/20 A2992 RMK AO2 T02640204
KMWK 210350Z AUTO 00000KT 10SM SCT080 SCT090 26/20 A2992 RMK AO2 T02640204
KMWK 210330Z AUTO 00000KT 10SM SCT085 SCT110 26/21 A2992 RMK AO2 T02580206
KMWK 210310Z AUTO 00000KT 10SM SCT085 SCT110 26/20 A2992 RMK AO2 T02590203
KMWK 210250Z AUTO 00000KT 10SM SCT090 25/21 A2992 RMK AO2 T02520214
KMWK 210230Z AUTO 00000KT 10SM CLR 27/21 A2991 RMK AO2 T02700206
KMWK 210210Z AUTO 00000KT 10SM SCT100 27/20 A2991 RMK AO2 T02690203
KMWK 210150Z AUTO 00000KT 10SM SCT100 28/20 A2990 RMK AO2 T02760201
KMWK 210130Z AUTO 00000KT 10SM SCT070 SCT080 SCT100 28/20 A2989 RMK AO2 T02820201
KMWK 210110Z AUTO 00000KT 10SM SCT060 BKN080 29/20 A2989 RMK AO2 T02860200
KMWK 210050Z AUTO 35004KT 10SM BKN060 BKN090 29/20 A2988 RMK AO2 T02880201
KMWK 210030Z AUTO 35003KT 10SM SCT060 SCT110 29/20 A2988 RMK AO2 T02940199
KMWK 210010Z AUTO 00000KT 10SM CLR 29/21 A2987 RMK AO2 T02880208
KMWK 202350Z AUTO 00000KT 10SM CLR 29/20 A2987 RMK AO2 T02920200 10322 20292
KMWK 202330Z AUTO 00000KT 10SM CLR 30/19 A2987 RMK AO2 T03040192
KMWK 202310Z AUTO 30003KT 10SM CLR 31/19 A2987 RMK AO2 T03110190
KMWK 202250Z AUTO 30003KT 10SM CLR 31/19 A2987 RMK AO2 T03140188
KMWK 202230Z AUTO 27004KT 10SM CLR 32/18 A2987 RMK AO2 T03150183
KMWK 202210Z AUTO 30004KT 10SM CLR 32/20 A2987 RMK AO2 T03160195
KMWK 202150Z AUTO 30004KT 10SM CLR 32/19 A2987 RMK AO2 T03180194
KMWK 202130Z AUTO 30006KT 10SM CLR 32/19 A2987 RMK AO2 T03160194
KMWK 202110Z AUTO 32007KT 280V340 10SM CLR 32/21 A2987 RMK AO2 T03210209
KMWK 202050Z AUTO 34005KT 10SM CLR 32/21 A2988 RMK AO2 T03190213
KMWK 202030Z AUTO 30004KT 10SM CLR 32/20 A2989 RMK AO2 T03160201
KMWK 202010Z AUTO 30006KT 10SM CLR 31/20 A2989 RMK AO2 T03130197
KMWK 201945Z AUTO 26004KT 10SM CLR 32/19 A2990 RMK AO2 T03190194
KMWK 201930Z AUTO 25004KT 10SM CLR 32/20 A2990 RMK AO2 T03180200
KMWK 201905Z AUTO 25003KT 10SM CLR 32/21 A2991 RMK AO2 T03180205
KMWK 201850Z AUTO 24005KT 10SM CLR 32/22 A2992 RMK AO2 T03180222
KMWK 201830Z AUTO 26003KT 10SM CLR 32/22 A2992 RMK AO2 T03170220
KMWK 201805Z AUTO 25003KT 10SM CLR 31/21 A2993 RMK AO2 T03050210
KMWK 201750Z AUTO 27003KT 10SM SCT050 31/21 A2994 RMK AO2 T03080206 10323 20255
KMWK 201730Z AUTO 29003KT 10SM CLR 31/21 A2994 RMK AO2 T03110206
KMWK 201710Z AUTO 30003KT 10SM CLR 32/21 A2995 RMK AO2 T03210212
KMWK 201650Z AUTO 29004KT 10SM SCT045 31/21 A2995 RMK AO2 T03140212
KMWK 201630Z AUTO 00000KT 10SM SCT045 31/21 A2995 RMK AO2 T03050214
KMWK 201610Z AUTO 31003KT 10SM CLR 31/22 A2996 RMK AO2 T03130219
KMWK 201545Z AUTO 33006KT 10SM CLR 31/21 A2997 RMK AO2 T03100209
KMWK 201530Z AUTO 33006KT 10SM CLR 31/21 A2997 RMK AO2 T03090208
KMWK 201505Z AUTO 31006KT 10SM CLR 31/22 A2997 RMK AO2 T03060220
KMWK 201450Z AUTO 31004KT 10SM CLR 30/22 A2997 RMK AO2 T03030218
KMWK 201430Z AUTO 30004KT 10SM CLR 30/22 A2996 RMK AO2 T03000218
KMWK 201410Z AUTO 00000KT 10SM CLR 30/22 A2997 RMK AO2 T02950220
KMWK 201345Z AUTO 31006KT 10SM CLR 29/22 A2997 RMK AO2 T02910220
KMWK 201330Z AUTO 32006KT 10SM CLR 29/23 A2997 RMK AO2 T02870226
KMWK 201305Z AUTO 31004KT 10SM CLR 28/22 A2997 RMK AO2 T02780220
KMWK 201250Z AUTO 00000KT 10SM CLR 28/22 A2997 RMK AO2 T02750221
KMWK 201230Z AUTO 31003KT 10SM CLR 27/22 A2997 RMK AO2 T02710218
KMWK 201210Z AUTO 00000KT 10SM CLR 27/22 A2997 RMK AO2 T02650220
KMWK 201145Z AUTO 00000KT 10SM CLR 25/22 A2997 RMK AO2 T02480217
KMWK 201130Z AUTO 00000KT 10SM CLR 24/21 A2997 RMK AO2 T02400214
KMWK 201110Z AUTO 00000KT 10SM CLR 23/21 A2997 RMK AO2 T02330210
KMWK 201050Z AUTO 00000KT 10SM CLR 22/20 A2997 RMK AO2 T02180200
KMWK 201025Z AUTO 00000KT 10SM CLR 22/20 A2996 RMK AO2 T02220203
KMWK 201010Z AUTO 00000KT 10SM CLR 22/20 A2996 RMK AO2 T02160198
KMWK 200950Z AUTO 00000KT 10SM CLR 22/20 A2996 RMK AO2 T02240204
KMWK 200930Z AUTO 00000KT 10SM CLR 22/20 A2995 RMK AO2 T02220203
KMWK 200910Z AUTO 00000KT 10SM CLR 23/21 A2995 RMK AO2 T02250205
KMWK 200845Z AUTO 00000KT 10SM CLR 23/21 A2996 RMK AO2 T02310206
KMWK 200830Z AUTO 00000KT 10SM CLR 23/21 A2996 RMK AO2 T02330205
KMWK 200805Z AUTO 00000KT 10SM CLR 23/21 A2996 RMK AO2 T02300205
KMWK 200740Z AUTO 00000KT 10SM CLR 23/21 A2996 RMK AO2 T02260205
KMWK 200730Z AUTO 00000KT 10SM CLR 23/21 A2995 RMK AO2 T02300205
KMWK 200710Z AUTO 00000KT 10SM CLR 23/20 A2996 RMK AO2 T02320203
KMWK 200650Z AUTO 00000KT 10SM CLR 24/21 A2996 RMK AO2 T02360205
KMWK 200630Z AUTO 00000KT 10SM CLR 24/21 A2996 RMK AO2 T02400205
KMWK 200610Z AUTO 00000KT 10SM CLR 24/21 A2997 RMK AO2 T02420209
KMWK 200550Z AUTO 00000KT 10SM CLR 26/21 A2997 RMK AO2 T02550206 10305 20255 403400217
KMWK 200530Z AUTO 00000KT 10SM CLR 26/20 A2997 RMK AO2 T02630202
KMWK 200510Z AUTO 34003KT 10SM CLR 27/20 A2997 RMK AO2 T02670203
KMWK 200445Z AUTO 32004KT 10SM CLR 27/21 A2997 RMK AO2 T02670209
KMWK 200425Z AUTO 32004KT 10SM CLR 26/21 A2997 RMK AO2 T02610214
KMWK 200410Z AUTO 32004KT 10SM CLR 26/22 A2997 RMK AO2 T02630217
KMWK 200350Z AUTO 00000KT 10SM CLR 26/22 A2997 RMK AO2 T02620220
KMWK 200330Z AUTO 32003KT 10SM CLR 27/22 A2997 RMK AO2 T02660220
KMWK 200300Z AUTO 33004KT 10SM CLR 27/22 A2997 RMK AO2 T02720220
KMWK 200250Z AUTO 00000KT 10SM CLR 28/22 A2997 RMK AO2 T02750219
KMWK 200230Z AUTO 00000KT 10SM CLR 28/22 A2997 RMK AO2 T02800220
KMWK 200210Z AUTO 00000KT 10SM CLR 28/22 A2996 RMK AO2 T02780218
KMWK 200150Z AUTO 00000KT 10SM CLR 29/22 A2996 RMK AO2 T02880217
KMWK 200130Z AUTO 00000KT 10SM CLR 29/22 A2995 RMK AO2 T02910216
KMWK 200105Z AUTO 00000KT 10SM CLR 30/22 A2995 RMK AO2 T02950220
KMWK 200050Z AUTO 00000KT 10SM CLR 30/23 A2994 RMK AO2 T02960225
KMWK 200030Z AUTO 00000KT 10SM CLR 30/24 A2994 RMK AO2 T02960235
KMWK 200010Z AUTO 00000KT 10SM CLR 30/24 A2993 RMK AO2 T03000238